createdAt,value
2019-01-29T00:00:44.070Z,96348.00
2019-01-29T00:03:13.503Z,96351.00
2019-01-29T00:05:42.927Z,96346.00
2019-01-29T00:08:12.308Z,96349.00
2019-01-29T00:10:41.673Z,96352.00
2019-01-29T00:13:11.032Z,96372.00
2019-01-29T00:15:40.411Z,96366.00
2019-01-29T00:18:09.769Z,96366.00
2019-01-29T00:20:39.125Z,96361.00
2019-01-29T00:23:08.575Z,96363.00
2019-01-29T00:25:37.949Z,96369.00
2019-01-29T00:28:07.290Z,96351.00
2019-01-29T00:30:37.176Z,96356.00
2019-01-29T00:33:06.608Z,96374.00
2019-01-29T00:35:35.972Z,96364.00
2019-01-29T00:38:05.425Z,96371.00
2019-01-29T00:40:34.773Z,96366.00
2019-01-29T00:43:04.137Z,96372.00
2019-01-29T00:45:33.501Z,96373.00
2019-01-29T00:48:02.851Z,96378.00
2019-01-29T00:50:32.210Z,96391.00
2019-01-29T00:53:01.946Z,96385.00
2019-01-29T00:55:31.554Z,96389.00
2019-01-29T00:58:00.910Z,96391.00
2019-01-29T01:00:31.737Z,96405.00
2019-01-29T01:03:01.162Z,96396.00
2019-01-29T01:05:30.519Z,96389.00
2019-01-29T01:07:59.961Z,96381.00
2019-01-29T01:10:29.387Z,96401.00
2019-01-29T01:12:58.739Z,96389.00
2019-01-29T01:15:28.273Z,96403.00
2019-01-29T01:17:57.638Z,96397.00
2019-01-29T01:20:27.019Z,96396.00
2019-01-29T01:22:56.373Z,96413.00
2019-01-29T01:25:25.743Z,96399.00
2019-01-29T01:27:55.091Z,96401.00
2019-01-29T01:30:24.617Z,96412.00
2019-01-29T01:32:53.980Z,96410.00
2019-01-29T01:35:23.392Z,96423.00
2019-01-29T01:37:53.213Z,96425.00
2019-01-29T01:40:23.695Z,96420.00
2019-01-29T01:42:53.049Z,96423.00
2019-01-29T01:45:22.426Z,96423.00
2019-01-29T01:47:51.760Z,96422.00
2019-01-29T01:50:21.113Z,96435.00
2019-01-29T01:52:58.890Z,96429.00
2019-01-29T02:14:43.195Z,96446.00
2019-01-29T02:17:12.549Z,96451.00
2019-01-29T02:19:41.895Z,96436.00
2019-01-29T02:22:11.259Z,96458.00
2019-01-29T02:24:40.613Z,96453.00
2019-01-29T02:27:09.957Z,96456.00
2019-01-29T02:29:39.312Z,96448.00
2019-01-29T02:32:08.653Z,96447.00
2019-01-29T02:34:37.990Z,96456.00
2019-01-29T02:37:07.377Z,96457.00
2019-01-29T02:39:36.745Z,96467.00
2019-01-29T02:42:06.298Z,96456.00
2019-01-29T02:44:37.145Z,96463.00
2019-01-29T02:47:06.498Z,96466.00
2019-01-29T02:49:35.839Z,96466.00
2019-01-29T02:52:05.449Z,96461.00
2019-01-29T02:54:34.786Z,96464.00
2019-01-29T02:57:04.305Z,96456.00
2019-01-29T02:59:34.021Z,96456.00
2019-01-29T03:02:03.372Z,96470.00
2019-01-29T03:04:32.710Z,96473.00
2019-01-29T03:07:02.077Z,96461.00
2019-01-29T03:09:31.427Z,96463.00
2019-01-29T03:12:00.763Z,96468.00
2019-01-29T03:14:30.140Z,96473.00
2019-01-29T03:17:00.919Z,96477.00
2019-01-29T03:19:30.263Z,96460.00
2019-01-29T03:21:59.927Z,96468.00
2019-01-29T03:24:29.273Z,96469.00
2019-01-29T03:26:58.617Z,96485.00
2019-01-29T03:29:27.983Z,96479.00
2019-01-29T03:31:57.356Z,96496.00
2019-01-29T03:34:26.665Z,96494.00
2019-01-29T03:36:56.029Z,96490.00
2019-01-29T03:39:25.371Z,96493.00
2019-01-29T03:41:54.717Z,96492.00
2019-01-29T03:44:24.800Z,96491.00
2019-01-29T03:46:54.152Z,96494.00
2019-01-29T03:49:23.492Z,96496.00
2019-01-29T03:51:52.845Z,96502.00
2019-01-29T03:54:22.185Z,96491.00
2019-01-29T03:56:51.533Z,96494.00
2019-01-29T03:59:20.889Z,96512.00
2019-01-29T04:01:50.232Z,96506.00
2019-01-29T04:04:19.575Z,96507.00
2019-01-29T04:06:48.959Z,96511.00
2019-01-29T04:09:18.308Z,96497.00
2019-01-29T04:11:47.650Z,96507.00
2019-01-29T04:14:17.010Z,96510.00
2019-01-29T04:16:46.350Z,96511.00
2019-01-29T04:19:16.999Z,96514.00
2019-01-29T04:21:46.432Z,96511.00
2019-01-29T04:24:15.782Z,96505.00
2019-01-29T04:26:45.132Z,96526.00
2019-01-29T04:29:14.559Z,96519.00
2019-01-29T04:31:43.904Z,96515.00
2019-01-29T04:34:13.246Z,96508.00
2019-01-29T04:36:42.613Z,96522.00
2019-01-29T04:39:11.945Z,96526.00
2019-01-29T04:41:41.295Z,96513.00
2019-01-29T04:44:10.670Z,96521.00
2019-01-29T04:46:40.011Z,96536.00
2019-01-29T04:49:09.374Z,96508.00
2019-01-29T04:51:39.385Z,96518.00
2019-01-29T04:54:08.731Z,96507.00
2019-01-29T04:56:38.079Z,96498.00
2019-01-29T04:59:07.494Z,96510.00
2019-01-29T05:01:36.836Z,96510.00
2019-01-29T05:04:06.945Z,96506.00
2019-01-29T05:06:36.302Z,96507.00
2019-01-29T05:09:08.421Z,96503.00
2019-01-29T05:11:37.774Z,96511.00
2019-01-29T05:14:07.931Z,96496.00
2019-01-29T05:16:37.303Z,96496.00
2019-01-29T05:19:06.644Z,96499.00
2019-01-29T05:21:37.191Z,96498.00
2019-01-29T05:24:07.343Z,96497.00
2019-01-29T05:26:36.855Z,96507.00
2019-01-29T05:29:06.357Z,96503.00
2019-01-29T05:31:35.710Z,96507.00
2019-01-29T05:34:05.185Z,96518.00
2019-01-29T05:36:35.760Z,96510.00
2019-01-29T05:39:08.485Z,96498.00
2019-01-29T05:41:37.840Z,96511.00
2019-01-29T05:44:07.203Z,96493.00
2019-01-29T05:46:36.549Z,96493.00
2019-01-29T05:49:05.897Z,96497.00
2019-01-29T05:51:35.257Z,96497.00
2019-01-29T05:54:04.732Z,96497.00
2019-01-29T05:56:34.083Z,96500.00
2019-01-29T05:59:03.464Z,96506.00
2019-01-29T06:01:32.816Z,96494.00
2019-01-29T06:04:02.161Z,96506.00
2019-01-29T06:06:31.531Z,96503.00
2019-01-29T06:09:00.888Z,96506.00
2019-01-29T06:11:30.241Z,96503.00
2019-01-29T06:13:59.594Z,96512.00
2019-01-29T06:16:28.945Z,96508.00
2019-01-29T06:18:58.283Z,96521.00
2019-01-29T06:21:27.653Z,96531.00
2019-01-29T06:23:57.301Z,96512.00
2019-01-29T06:26:26.637Z,96526.00
2019-01-29T06:28:56.013Z,96513.00
2019-01-29T06:31:25.345Z,96523.00
2019-01-29T06:33:54.690Z,96522.00
2019-01-29T06:36:24.065Z,96537.00
2019-01-29T06:38:53.413Z,96522.00
2019-01-29T06:41:22.757Z,96516.00
2019-01-29T06:43:52.596Z,96515.00
2019-01-29T06:46:21.938Z,96514.00
2019-01-29T06:48:51.278Z,96511.00
2019-01-29T06:51:20.650Z,96522.00
2019-01-29T06:53:49.993Z,96521.00
2019-01-29T06:56:19.490Z,96520.00
2019-01-29T06:58:48.844Z,96540.00
2019-01-29T07:01:18.190Z,96449.00
2019-01-29T07:03:47.545Z,96542.00
2019-01-29T07:06:16.933Z,96522.00
2019-01-29T07:08:46.282Z,96519.00
2019-01-29T07:11:15.637Z,96541.00
2019-01-29T07:13:44.999Z,96535.00
2019-01-29T07:16:16.150Z,96527.00
2019-01-29T07:18:49.810Z,96528.00
2019-01-29T07:21:19.214Z,96538.00
2019-01-29T07:23:48.557Z,96540.00
2019-01-29T07:26:18.215Z,96532.00
2019-01-29T07:28:47.581Z,96555.00
2019-01-29T07:31:16.929Z,96536.00
2019-01-29T07:33:46.269Z,96539.00
2019-01-29T07:36:15.641Z,96548.00
2019-01-29T07:38:44.985Z,96554.00
2019-01-29T07:41:14.322Z,96560.00
2019-01-29T07:43:44.306Z,96558.00
2019-01-29T07:46:13.649Z,96559.00
2019-01-29T07:48:42.993Z,96560.00
2019-01-29T07:51:12.398Z,96556.00
2019-01-29T07:53:41.751Z,96560.00
2019-01-29T07:56:11.091Z,96540.00
2019-01-29T07:58:40.450Z,96550.00
2019-01-29T08:01:09.868Z,96543.00
2019-01-29T08:03:39.212Z,96557.00
2019-01-29T08:06:08.581Z,96547.00
2019-01-29T08:08:37.934Z,96545.00
2019-01-29T08:11:07.278Z,96530.00
2019-01-29T08:13:36.629Z,96538.00
2019-01-29T08:16:06.114Z,96546.00
2019-01-29T08:18:35.461Z,96547.00
2019-01-29T08:21:04.882Z,96537.00
2019-01-29T08:23:34.237Z,96551.00
2019-01-29T08:26:03.586Z,96537.00
2019-01-29T08:28:34.004Z,96522.00
2019-01-29T08:31:03.385Z,96538.00
2019-01-29T08:33:32.721Z,96523.00
2019-01-29T08:36:02.076Z,96546.00
2019-01-29T08:38:31.421Z,96536.00
2019-01-29T08:41:00.845Z,96528.00
2019-01-29T08:43:30.203Z,96538.00
2019-01-29T08:45:59.634Z,96540.00
2019-01-29T08:48:28.968Z,96531.00
2019-01-29T08:50:58.723Z,96539.00
2019-01-29T08:53:28.070Z,96541.00
2019-01-29T08:55:57.418Z,96546.00
2019-01-29T08:58:27.465Z,96537.00
2019-01-29T09:00:56.899Z,96531.00
2019-01-29T09:03:26.238Z,96547.00
2019-01-29T09:05:55.622Z,96540.00
2019-01-29T09:08:24.966Z,96547.00
2019-01-29T09:10:54.451Z,96530.00
2019-01-29T09:13:24.219Z,96531.00
2019-01-29T09:15:53.567Z,96548.00
2019-01-29T09:18:22.916Z,96528.00
2019-01-29T09:20:52.277Z,96541.00
2019-01-29T09:23:21.621Z,96525.00
2019-01-29T09:25:50.966Z,96533.00
2019-01-29T09:28:20.344Z,96524.00
2019-01-29T09:30:51.082Z,96516.00
2019-01-29T09:33:20.417Z,96513.00
2019-01-29T09:35:50.252Z,96506.00
2019-01-29T09:38:19.591Z,96510.00
2019-01-29T09:40:48.939Z,96525.00
2019-01-29T09:43:18.310Z,96514.00
2019-01-29T09:45:47.651Z,96504.00
2019-01-29T09:48:17.059Z,96502.00
2019-01-29T09:50:46.415Z,96498.00
2019-01-29T09:53:15.759Z,96490.00
2019-01-29T09:55:45.109Z,96516.00
2019-01-29T09:58:15.174Z,96500.00
2019-01-29T10:00:44.516Z,96503.00
2019-01-29T10:03:13.908Z,96504.00
2019-01-29T10:05:43.262Z,96490.00
2019-01-29T10:08:12.605Z,96491.00
2019-01-29T10:10:41.957Z,96499.00
2019-01-29T10:13:11.318Z,96490.00
2019-01-29T10:15:40.661Z,96484.00
2019-01-29T10:18:10.072Z,96500.00
2019-01-29T10:20:39.897Z,96471.00
2019-01-29T10:23:09.242Z,96489.00
2019-01-29T10:25:38.598Z,96485.00
2019-01-29T10:28:07.949Z,96477.00
2019-01-29T10:30:37.306Z,96485.00
2019-01-29T10:33:07.203Z,96476.00
2019-01-29T10:35:36.567Z,96468.00
2019-01-29T10:38:05.895Z,96474.00
2019-01-29T10:40:35.247Z,96476.00
2019-01-29T10:43:06.489Z,96450.00
2019-01-29T10:45:35.845Z,96464.00
2019-01-29T10:48:05.723Z,96464.00
2019-01-29T10:50:35.066Z,96461.00
2019-01-29T10:53:04.656Z,96445.00
2019-01-29T10:55:34.079Z,96458.00
2019-01-29T10:58:03.539Z,96454.00
2019-01-29T11:00:39.920Z,96432.00
2019-01-29T11:03:10.743Z,96429.00
2019-01-29T11:05:40.691Z,96431.00
2019-01-29T11:08:10.045Z,96428.00
2019-01-29T11:10:39.489Z,96424.00
2019-01-29T11:13:08.908Z,96421.00
2019-01-29T11:15:41.173Z,96420.00
2019-01-29T11:18:13.551Z,96407.00
2019-01-29T11:20:43.166Z,96419.00
2019-01-29T11:23:12.588Z,96396.00
2019-01-29T11:25:42.187Z,96406.00
2019-01-29T11:28:11.522Z,96407.00
2019-01-29T11:30:41.002Z,96388.00
2019-01-29T11:33:10.447Z,96394.00
2019-01-29T11:35:40.604Z,96390.00
2019-01-29T11:38:10.157Z,96388.00
2019-01-29T11:40:39.883Z,96394.00
2019-01-29T11:43:09.471Z,96390.00
2019-01-29T11:45:46.424Z,96391.00
2019-01-29T11:48:15.770Z,96394.00
2019-01-29T11:50:45.121Z,96382.00
2019-01-29T11:53:14.481Z,96382.00
2019-01-29T11:55:43.818Z,96394.00
2019-01-29T11:58:13.159Z,96374.00
2019-01-29T12:00:44.968Z,96377.00
2019-01-29T12:03:14.365Z,96389.00
2019-01-29T12:05:43.708Z,96383.00
2019-01-29T12:08:13.141Z,96379.00
2019-01-29T12:10:42.623Z,96368.00
2019-01-29T12:13:11.965Z,96354.00
2019-01-29T12:15:41.322Z,96353.00
2019-01-29T12:18:10.736Z,96352.00
2019-01-29T12:20:40.069Z,96351.00
2019-01-29T12:23:09.561Z,96345.00
2019-01-29T12:25:38.965Z,96341.00
2019-01-29T12:28:08.295Z,96348.00
2019-01-29T12:30:37.870Z,96339.00
2019-01-29T12:33:08.417Z,96343.00
2019-01-29T12:35:37.754Z,96340.00
2019-01-29T12:38:07.430Z,96331.00
2019-01-29T12:40:37.186Z,96342.00
2019-01-29T12:43:06.804Z,96332.00
2019-01-29T12:45:36.200Z,96328.00
2019-01-29T12:48:07.356Z,96324.00
2019-01-29T12:50:38.035Z,96323.00
2019-01-29T12:53:09.266Z,96323.00
2019-01-29T12:55:38.755Z,96309.00
2019-01-29T12:58:08.490Z,96316.00
2019-01-29T13:00:40.715Z,96327.00
2019-01-29T13:03:10.057Z,96292.00
2019-01-29T13:05:39.399Z,96307.00
2019-01-29T13:08:09.466Z,96302.00
2019-01-29T13:10:38.871Z,96296.00
2019-01-29T13:13:08.716Z,96299.00
2019-01-29T13:15:38.153Z,96299.00
2019-01-29T13:18:07.764Z,96288.00
2019-01-29T13:20:37.113Z,96281.00
2019-01-29T13:23:06.589Z,96284.00
2019-01-29T13:25:35.991Z,96285.00
2019-01-29T13:28:05.748Z,96285.00
2019-01-29T13:30:37.513Z,96281.00
2019-01-29T13:33:10.752Z,96277.00
2019-01-29T13:35:40.614Z,96270.00
2019-01-29T13:38:11.284Z,96264.00
2019-01-29T13:40:41.795Z,96263.00
2019-01-29T13:43:11.221Z,96253.00
2019-01-29T13:45:40.816Z,96247.00
2019-01-29T13:48:10.196Z,96242.00
2019-01-29T13:50:44.425Z,96248.00
2019-01-29T13:53:13.806Z,96255.00
2019-01-29T13:55:43.148Z,96243.00
2019-01-29T13:58:12.562Z,96247.00
2019-01-29T14:00:42.194Z,96240.00
2019-01-29T14:03:13.365Z,96245.00
2019-01-29T14:05:42.711Z,96232.00
2019-01-29T14:08:12.205Z,96229.00
2019-01-29T14:10:41.550Z,96232.00
2019-01-29T14:13:11.227Z,96229.00
2019-01-29T14:15:42.735Z,96221.00
2019-01-29T14:18:12.883Z,96212.00
2019-01-29T14:20:42.211Z,96217.00
2019-01-29T14:23:11.569Z,96215.00
2019-01-29T14:25:40.935Z,96209.00
2019-01-29T14:28:10.483Z,96215.00
2019-01-29T14:30:39.910Z,96208.00
2019-01-29T14:33:09.513Z,96200.00
2019-01-29T14:35:38.928Z,96191.00
2019-01-29T14:38:18.978Z,96203.00
2019-01-29T14:40:48.324Z,96202.00
2019-01-29T14:43:31.004Z,96205.00
2019-01-29T14:46:00.360Z,96173.00
2019-01-29T14:48:29.701Z,96197.00
2019-01-29T14:50:59.065Z,96181.00
2019-01-29T14:53:28.406Z,96170.00
2019-01-29T14:55:57.752Z,96171.00
2019-01-29T14:58:27.497Z,96175.00
2019-01-29T15:00:56.992Z,96169.00
2019-01-29T15:03:26.339Z,96161.00
2019-01-29T15:05:55.686Z,96159.00
2019-01-29T15:08:25.030Z,96166.00
2019-01-29T15:10:54.369Z,96150.00
2019-01-29T15:13:23.756Z,96137.00
2019-01-29T15:15:54.734Z,96142.00
2019-01-29T15:18:25.714Z,96137.00
2019-01-29T15:20:55.457Z,96147.00
2019-01-29T15:23:24.803Z,96130.00
2019-01-29T15:25:54.143Z,96124.00
2019-01-29T15:28:23.505Z,96139.00
2019-01-29T15:30:52.849Z,96128.00
2019-01-29T15:33:22.187Z,96140.00
2019-01-29T15:35:51.543Z,96133.00
2019-01-29T15:38:20.887Z,96126.00
2019-01-29T15:40:50.232Z,96120.00
2019-01-29T15:43:20.376Z,96130.00
2019-01-29T15:45:50.325Z,96122.00
2019-01-29T15:48:19.664Z,96128.00
2019-01-29T15:50:49.025Z,96122.00
2019-01-29T15:53:18.360Z,96121.00
2019-01-29T15:55:47.697Z,96116.00
2019-01-29T15:58:17.059Z,96121.00
2019-01-29T16:00:46.404Z,96112.00
2019-01-29T16:03:15.748Z,96114.00
2019-01-29T16:05:45.120Z,96104.00
2019-01-29T16:08:15.301Z,96107.00
2019-01-29T16:10:46.370Z,96100.00
2019-01-29T16:13:15.730Z,96101.00
2019-01-29T16:15:45.343Z,96098.00
2019-01-29T16:18:15.168Z,96102.00
2019-01-29T16:20:44.519Z,96081.00
2019-01-29T16:23:13.854Z,96098.00
2019-01-29T16:25:43.334Z,96099.00
2019-01-29T16:28:12.974Z,96093.00
2019-01-29T16:30:42.324Z,96081.00
2019-01-29T16:33:11.654Z,96075.00
2019-01-29T16:35:43.545Z,96077.00
2019-01-29T16:38:13.018Z,96080.00
2019-01-29T16:40:45.538Z,96069.00
2019-01-29T16:43:15.268Z,96067.00
2019-01-29T16:45:44.616Z,96074.00
2019-01-29T16:48:14.331Z,96070.00
2019-01-29T16:50:43.769Z,96073.00
2019-01-29T16:53:13.102Z,96066.00
2019-01-29T16:55:42.458Z,96061.00
2019-01-29T16:58:11.798Z,96054.00
2019-01-29T17:00:43.148Z,96041.00
2019-01-29T17:03:12.558Z,96048.00
2019-01-29T17:05:41.983Z,96056.00
2019-01-29T17:08:12.052Z,96055.00
2019-01-29T17:10:41.600Z,96037.00
2019-01-29T17:13:10.977Z,96041.00
2019-01-29T17:15:40.686Z,96040.00
2019-01-29T17:18:12.638Z,96027.00
2019-01-29T17:20:47.323Z,96032.00
2019-01-29T17:23:16.726Z,96027.00
2019-01-29T17:25:46.058Z,96016.00
2019-01-29T17:28:15.420Z,96037.00
2019-01-29T17:30:47.486Z,96016.00
2019-01-29T17:33:18.672Z,96018.00
2019-01-29T17:35:48.763Z,96010.00
2019-01-29T17:38:18.113Z,96011.00
2019-01-29T17:40:47.734Z,96007.00
2019-01-29T17:43:17.238Z,96009.00
2019-01-29T17:45:52.002Z,95995.00
2019-01-29T17:48:21.339Z,95983.00
2019-01-29T17:50:51.465Z,95995.00
2019-01-29T17:53:20.801Z,95989.00
2019-01-29T17:55:50.147Z,95987.00
2019-01-29T17:58:19.494Z,95981.00
2019-01-29T18:00:50.470Z,95962.00
2019-01-29T18:03:19.805Z,95967.00
2019-01-29T18:05:49.299Z,95970.00
2019-01-29T18:08:18.638Z,95964.00
2019-01-29T18:10:48.051Z,95963.00
2019-01-29T18:13:17.726Z,95963.00
2019-01-29T18:15:47.133Z,95952.00
2019-01-29T18:18:16.480Z,95949.00
2019-01-29T18:20:45.909Z,95946.00
2019-01-29T18:23:15.231Z,95952.00
2019-01-29T18:25:44.575Z,95942.00
2019-01-29T18:28:13.950Z,95933.00
2019-01-29T18:30:43.285Z,95928.00
2019-01-29T18:33:12.625Z,95930.00
2019-01-29T18:35:42.061Z,95920.00
2019-01-29T18:38:11.406Z,95918.00
2019-01-29T18:40:45.534Z,95919.00
2019-01-29T18:43:16.828Z,95902.00
2019-01-29T18:45:46.223Z,95902.00
2019-01-29T18:48:15.562Z,95906.00
2019-01-29T18:50:44.980Z,95909.00
2019-01-29T18:53:14.895Z,95897.00
2019-01-29T18:55:44.233Z,95900.00
2019-01-29T18:58:15.345Z,95890.00
2019-01-29T19:00:54.019Z,95888.00
2019-01-29T19:03:15.963Z,95896.00
2019-01-29T19:05:45.333Z,95893.00
2019-01-29T19:08:14.727Z,95885.00
2019-01-29T19:10:44.133Z,95880.00
2019-01-29T19:13:13.588Z,95873.00
2019-01-29T19:15:43.007Z,95879.00
2019-01-29T19:18:12.418Z,95876.00
2019-01-29T19:20:41.780Z,95872.00
2019-01-29T19:23:11.155Z,95876.00
2019-01-29T19:25:40.500Z,95875.00
2019-01-29T19:28:09.847Z,95878.00
2019-01-29T19:30:39.182Z,95876.00
2019-01-29T19:33:08.523Z,95859.00
2019-01-29T19:35:38.761Z,95891.00
2019-01-29T19:38:08.383Z,95864.00
2019-01-29T19:40:40.359Z,95871.00
2019-01-29T19:43:08.817Z,95865.00
2019-01-29T19:45:38.219Z,95858.00
2019-01-29T19:48:07.928Z,95853.00
2019-01-29T19:50:37.343Z,95847.00
2019-01-29T19:53:06.683Z,95854.00
2019-01-29T19:55:37.401Z,95861.00
2019-01-29T19:58:09.476Z,95858.00
2019-01-29T20:00:41.495Z,95856.00
2019-01-29T20:03:11.137Z,95862.00
2019-01-29T20:05:40.508Z,95848.00
2019-01-29T20:08:09.850Z,95847.00
2019-01-29T20:10:39.339Z,95844.00
2019-01-29T20:13:08.782Z,95841.00
2019-01-29T20:15:38.125Z,95847.00
2019-01-29T20:18:07.533Z,95850.00
2019-01-29T20:20:40.108Z,95835.00
2019-01-29T20:23:09.578Z,95825.00
2019-01-29T20:25:38.991Z,95829.00
2019-01-29T20:28:08.473Z,95819.00
2019-01-29T20:30:40.069Z,95824.00
2019-01-29T20:33:09.843Z,95814.00
2019-01-29T20:35:39.243Z,95803.00
2019-01-29T20:38:08.578Z,95813.00
2019-01-29T20:40:38.053Z,95814.00
2019-01-29T20:43:07.488Z,95802.00
2019-01-29T20:45:36.999Z,95800.00
2019-01-29T20:48:06.407Z,95802.00
2019-01-29T20:50:37.490Z,95793.00
2019-01-29T20:53:06.901Z,95792.00
2019-01-29T20:55:36.246Z,95788.00
2019-01-29T20:58:06.691Z,95784.00
2019-01-29T21:00:42.042Z,95785.00
2019-01-29T21:03:11.525Z,95772.00
2019-01-29T21:05:40.889Z,95777.00
2019-01-29T21:08:10.364Z,95764.00
2019-01-29T21:10:39.777Z,95770.00
2019-01-29T21:13:10.927Z,95771.00
2019-01-29T21:15:40.433Z,95760.00
2019-01-29T21:18:09.858Z,95762.00
2019-01-29T21:20:39.237Z,95767.00
2019-01-29T21:23:08.573Z,95779.00
2019-01-29T21:25:37.939Z,95752.00
2019-01-29T21:28:07.312Z,95749.00
2019-01-29T21:30:39.856Z,95743.00
2019-01-29T21:33:09.283Z,95755.00
2019-01-29T21:35:38.795Z,95754.00
2019-01-29T21:38:08.213Z,95752.00
2019-01-29T21:40:37.721Z,95742.00
2019-01-29T21:43:07.077Z,95740.00
2019-01-29T21:45:36.416Z,95746.00
2019-01-29T21:48:06.272Z,95738.00
2019-01-29T21:50:38.452Z,95719.00
2019-01-29T21:53:07.839Z,95733.00
2019-01-29T21:55:37.194Z,95734.00
2019-01-29T21:58:07.701Z,95720.00
2019-01-29T22:00:43.192Z,95722.00
2019-01-29T22:03:12.546Z,95719.00
2019-01-29T22:05:41.913Z,95719.00
2019-01-29T22:08:11.760Z,95718.00
2019-01-29T22:10:41.940Z,95704.00
2019-01-29T22:13:11.429Z,95693.00
2019-01-29T22:15:40.867Z,95695.00
2019-01-29T22:18:10.617Z,95682.00
2019-01-29T22:20:40.052Z,95677.00
2019-01-29T22:23:09.482Z,95685.00
2019-01-29T22:25:38.910Z,95689.00
2019-01-29T22:28:08.673Z,95686.00
2019-01-29T22:30:41.027Z,95681.00
2019-01-29T22:33:10.399Z,95684.00
2019-01-29T22:35:39.748Z,95669.00
2019-01-29T22:38:09.171Z,95662.00
2019-01-29T22:40:38.533Z,95657.00
2019-01-29T22:43:08.163Z,95664.00
2019-01-29T22:45:37.514Z,95656.00
2019-01-29T22:48:07.091Z,95645.00
2019-01-29T22:50:41.226Z,95650.00
2019-01-29T22:53:10.986Z,95656.00
2019-01-29T22:55:40.439Z,95661.00
2019-01-29T22:58:10.034Z,95646.00
2019-01-29T23:00:56.676Z,95632.00
2019-01-29T23:03:40.452Z,95635.00
2019-01-29T23:06:20.522Z,95637.00
2019-01-29T23:08:49.878Z,95613.00
2019-01-29T23:11:19.231Z,95611.00
2019-01-29T23:13:49.226Z,95611.00
2019-01-29T23:16:18.786Z,95602.00
2019-01-29T23:18:48.154Z,95618.00
2019-01-29T23:21:17.523Z,95591.00
2019-01-29T23:23:46.892Z,95585.00
2019-01-29T23:26:16.240Z,95591.00
2019-01-29T23:28:45.614Z,95584.00
2019-01-29T23:31:14.993Z,95575.00
2019-01-29T23:33:44.345Z,95573.00
2019-01-29T23:36:13.730Z,95551.00
2019-01-29T23:38:43.077Z,95564.00
2019-01-29T23:41:12.436Z,95557.00
2019-01-29T23:43:41.795Z,95544.00
2019-01-29T23:46:11.148Z,95555.00
2019-01-29T23:48:40.503Z,95544.00
2019-01-29T23:51:09.874Z,95545.00
2019-01-29T23:53:39.231Z,95535.00
2019-01-29T23:56:08.585Z,95535.00
2019-01-29T23:58:38.226Z,95523.00
